Riverton, Nebraska
Current Conditions -  °F | °C
As of 7:35 AM on Sunday 23 Nov 2014 (Local Time) from KHDE Reporting Station
Overcast Overcast  
Wind Chill: 36°   Ceiling: 9000
Heat Index: 44°   Visibility: 10mi
Dew Point: 33°   Wind: 16mph
Humidity: 66%   Direction: 360°N
Pressure: 29.55"   Gusts: 23mph
Location:  40.09°N, 98.76°W
Report Text: KHDE 231335Z AUTO 36014G20KT 10SM OVC090 07/01 A2955 RMK AO2 T00650006
Loading
Personal Weather Stations






























Interactive Weather Map New forecast layout! Learn more

10-Day Weather Forecast

Advertisements
Track Severe Weather on mobile